Date,TemperatureHighF,TemperatureAvgF,TemperatureLowF,DewpointHighF,DewpointAvgF,DewpointLowF,HumidityHigh,HumidityAvg,HumidityLow,PressureMaxIn,PressureMinIn,WindSpeedMaxMPH,WindSpeedAvgMPH,GustSpeedMaxMPH,PrecipitationSumIn
2013-3-1,29.5,26.5,25.0,24.4,20.7,19.0,82,79,74,30.12,29.96,1,0,10,0.00
2013-3-2,26.7,24.6,22.0,19.8,18.3,16.2,81,77,72,30.10,30.06,1,0,7,0.00
2013-3-3,29.7,22.9,15.5,16.2,14.6,11.3,83,71,55,30.08,30.01,2,0,14,0.01
2013-3-4,35.0,26.5,10.7,19.8,15.9,7.1,92,65,47,30.17,30.08,5,0,5,0.01
2013-3-5,35.9,27.7,19.0,25.4,20.6,14.1,92,75,60,30.14,29.83,6,0,6,0.02
2013-3-6,39.1,31.7,26.2,30.1,25.5,21.3,85,78,67,30.13,29.85,7,0,7,0.02
2013-3-7,36.2,32.6,26.0,29.5,25.5,18.5,85,75,64,30.40,30.20,1,0,7,0.00
2013-3-8,42.9,30.7,18.9,27.6,22.3,15.4,87,72,54,30.51,30.40,1,0,5,0.00
2013-3-9,42.7,39.6,24.3,32.0,30.2,21.3,89,69,60,30.41,30.01,9,1,10,0.00
2013-3-10,60.5,51.1,38.5,46.1,38.8,31.6,76,63,55,30.01,29.76,13,3,13,0.01
2013-3-11,56.2,48.4,37.1,48.2,42.8,31.8,92,81,60,29.77,29.43,15,4,15,0.23
2013-3-12,37.2,33.7,30.1,31.9,28.3,24.4,85,80,73,29.92,29.67,18,1,19,0.00
2013-3-13,31.5,28.3,24.0,27.1,20.4,13.4,89,72,58,30.21,29.85,16,2,16,0.00
2013-3-14,40.6,31.4,20.2,23.3,19.3,13.5,82,61,45,30.27,30.08,12,1,13,0.00
2013-3-15,39.6,34.9,29.2,33.2,28.7,20.5,89,78,60,30.08,29.82,9,0,9,0.00
2013-3-16,33.5,29.7,27.7,30.6,25.6,22.8,89,84,77,30.05,29.75,7,0,7,0.00
2013-3-17,33.3,26.6,19.3,23.6,17.4,14.4,83,69,53,30.27,30.04,12,0,12,0.00
2013-3-18,34.7,30.3,22.2,32.1,26.0,15.1,90,84,73,30.18,29.55,12,1,12,0.00
2013-3-19,34.2,26.5,22.8,30.6,18.9,14.3,89,73,64,29.95,29.61,18,2,19,0.00
2013-3-20,27.9,24.1,16.9,18.6,14.3,8.8,76,66,57,29.96,29.90,17,1,17,0.00
2013-3-21,31.3,24.0,15.4,23.0,17.8,10.1,84,77,65,29.95,29.88,15,1,15,0.00
2013-3-22,39.6,30.7,25.8,24.5,20.7,17.0,78,67,53,30.03,29.94,10,1,14,0.00
2013-3-23,35.7,28.6,20.7,25.5,21.6,16.9,92,75,63,30.12,30.02,6,0,6,0.00
2013-3-24,36.5,29.9,21.8,27.3,22.8,17.8,87,75,57,30.04,29.62,9,1,9,0.00
2013-3-25,40.3,34.6,30.9,28.9,26.2,23.4,78,71,59,29.92,29.56,12,1,13,0.00
2013-3-26,45.0,36.1,32.3,32.4,28.4,26.4,85,74,55,30.12,29.92,12,1,16,0.00
2013-3-27,46.7,37.5,29.8,30.0,26.9,24.0,85,67,47,30.21,30.11,15,2,16,0.00
2013-3-28,51.8,40.1,29.5,31.1,26.4,22.7,83,59,40,30.26,30.20,15,1,15,0.00
2013-3-29,51.8,41.1,25.7,27.0,24.0,20.4,89,52,35,30.29,30.19,7,0,7,0.00
2013-3-30,55.3,41.3,23.9,32.2,25.5,19.6,89,57,30,30.22,29.90,10,1,10,0.00
2013-3-31,58.3,46.3,36.3,43.9,34.6,28.5,87,65,40,29.90,29.59,18,1,18,0.02